Honolulu, HI

4:07 PM HST on October 20, 2014 (GMT -1000)
Pacific Heights | Change Station
CLOSE
Current Station
Personal Weather Station
Location: Honolulu, HI
Elevation: 528 ft
Nearby Weather Stations
Active Advisory: High Surf Advisory Active Notice: Record Report

Elev 528 ft 21.33 °N, 157.84 °W | Updated 17 seconds ago

Mostly Cloudy
Mostly Cloudy
81.5 °F
Feels Like 86 °F
N
4.9
Wind Variable Wind from East
Gusts 9.0 mph

Today
High -- | Low -- °F
--% Chance of Precip.
Yesterday
High -- | Low -- °F
Precip. -- in
6:28 AM 6:02 PM
Waning Crescent, 8% visible
Pressure 29.93 in
Visibility 10.0 miles
Clouds Few 2700 ft
Scattered Clouds 5500 ft
Mostly Cloudy 12000 ft
Mostly Cloudy 20000 ft
Heat Index 86 °F
Dew Point 71 °F
Humidity 70%
Rainfall 0.00 in
Snow Depth Not available.
UV 1 out of 12
Pollen Not available.
Air Quality Not available.
Flu Activity Sporadic
METAR PHNL 210153Z 04014G18KT 10SM FEW027 SCT055 BKN120 BKN200 29/21 A2993 RMK AO2 SLP135 T02890211

More Conditions Fewer Conditions

Pressure 29.93 in
Visibility 10.0 miles
Clouds Few 2700 ft
Scattered Clouds 5500 ft
Mostly Cloudy 12000 ft
Mostly Cloudy 20000 ft
Heat Index 86 °F
Dew Point 71 °F
Humidity 70%
Rainfall 0.00 in
Snow Depth Not available.
UV 1 out of 12
Pollen Not available.
Air Quality Not available.
Flu Activity Sporadic
METAR PHNL 210153Z 04014G18KT 10SM FEW027 SCT055 BKN120 BKN200 29/21 A2993 RMK AO2 SLP135 T02890211

More Conditions Fewer Conditions

10-Day Weather Forecast

Almanac

Astronomy

Oct. 20, 2014 Rise Set
Actual Time 6:28 AM HST 6:02 PM HST
Civil Twilight 6:06 AM HST 6:25 PM HST
Nautical Twilight 5:40 AM HST 6:51 PM HST
Astronomical Twilight 5:14 AM HST 7:17 PM HST
Moon 3:49 AM HST (10/20) 4:13 PM HST (10/20)
Length of Visible Light 12h 18m
Length of Day
11h 33m
Tomorrow will be 1m 9s shorter.
Waning Crescent, 8% of the Moon is Illuminated
Today
Waning Crescent
Oct 23
New
Oct 30
First Quarter
Nov 6
Full
Nov 14
Last Quarter

Today's Extremes

State Highs State Lows

Community

WunderPhotos

Upload Photos

1,763,569 photos uploaded!

Nearby

Air Quality

  Air Quality AQ Index Pollutant
Monday Good
OZONE
Tuesday Good
OZONE

Snow Depth

Station Depth Elevation
No new snow has been reported.

Earthquake Activity

City Distance Mag. Time & Date
No recent earthquake activity has been reported nearby.
Minimum magnitude displayed is 2.5.

Coastal Water Temperatures

Place Temperature
No Stations Reporting

Nearby Weather Stations